الصفحة الرئيسية
METAR-TAF:

METAR-TAF

مطار :

Kudat, ماليزيا

دائرة عرض: 06-55N, خط طول: 116-50E, ارتفاع: 3 متر

مراقبة الطقس الحالي

تاريخ ووقت الإصدار 1ساعة و 6 دقيقة قبل الساعة 09:00UTC
ريح 10 عقدة من الغرب/الجنوب الغربي تتزايد حتى 21 عقدة, الاتجاه يتراوح بين الجنوب/الجنوب الغربي و الغرب/الشمال الغربي
درجة الحرارة 29°درجة مئوية
الرطوبة 74%
ضغط 1006 hPa
الرؤية 10 كم أو أكثر
غيوم قليلة على ارتفاع 1400 قدم

METAR: WBKT 220900Z 25010G21KT 210V300 9999 FEW014 29/24 Q1006

زمن: 18:06 (10:06 UTC)


TAF: مفقودة

أرصاد الطقس والتوقعات من أكثر من 4000 مطار (تقارير الطقس للمطار METAR والتنبؤ بالطقس بالمطارTAF).

المحطات المتاحة هي النقط الصفراء والحمراء على الخريطة.

حرك المؤشر فوق النقطة لمعرفة اسم المحطة.

ثم انقر لمعرفة أرصاد وتوقعات الطقس.

لتغيير الخارطة: اضغط على الأزرار الخضراء مع رمز الصليب الأسود للتكبير. على الزر الأخضر مع شرطة للتصغير، أو على الأسهم الخضراء للخرائط المجاورة.


METAR-TAF: